サンパウロ/グアルーリョス の空港の天気 - METARとTAF

グアルーリョス国際空港 (サンパウロ) ( SBGR / GRU ) - ブラジル サンパウロ州サンパウロ市
飛行場実況気象(Metar)
観測時間10/15 14:00 BRT (10/15 17:00 UTC)
風向・風速南南東 4m/s
視程10km以上
天気現象
全天の8割程度の雲 雲底高度 910m
全天の8割程度の雲 雲底高度 3050m
気温23℃
湿度73%
気圧1020hPa
METARSBGR 151700Z 16007KT 9999 BKN030 BKN100 23/18 Q1020
過去の天気等 Google飛行場航空写真 Wunderground天気予報

過去48時間のMETAR

飛行場予報(TAF)
発表時間: 10/15 13:00 BRT (10/15 16:00 UTC)
予報対象時間: 15日15時 BRT ~ 16日21時 BRT
風向・風速南南東 5m/s
視程10km以上
全天の8割程度の雲 雲底高度 460m
15日16時 BRT ~ 15日18時 BRT に徐々に
全天の8割程度の雲 雲底高度 300m
15日21時 BRT ~ 15日23時 BRT に徐々に
風向・風速南南東 3m/s
全天を覆う雲 雲底高度 240m
16日4時 BRT から 確率 30% で
視程3400m
天気現象霧雨 もや
全天を覆う雲 雲底高度 150m
16日9時 BRT ~ 16日11時 BRT に徐々に
全天の8割程度の雲 雲底高度 700m
16日17時 BRT ~ 16日19時 BRT に徐々に
全天の8割程度の雲 雲底高度 370m
TAF SBGR 151600Z 1518/1624 15010KT 9999 BKN015 TN18/1609Z TX27/1618Z
BECMG 1519/1521 BKN010
BECMG 1600/1602 16005KT OVC008
PROB30 1607/1611 3400 DZ BR OVC005
BECMG 1612/1614 BKN023
BECMG 1620/1622 BKN012 RMK PGD